Terminal Aerodrome Forecast
Issued by NWS Charleston, WV

Current Version | Previous Version | Graphics & Text | Print | Product List | Glossary On
Versions: 1 2 3 4 5 6 7 8 9 10 11 12 13 14 15 16 17 18 19 20 21 22 23 24 25 26
000
FTUS41 KRLX 161121
TAFPKB
TAF
KPKB 161121Z 1612/1712 23010KT 6SM -RA BR SCT007 BKN035 OVC080
     FM161400 30009KT 2SM SHRA OVC014
     FM161500 31010G17KT 3SM -RA OVC017
     FM161900 33010G17KT P6SM OVC020
     FM162300 34007KT P6SM SCT026
     FM170500 03003KT P6SM FEW035=

USA.gov is the U.S. government's official web portal to all federal, state and local government web resources and services.